sensor_id;sensor_type;location;lat;lon;timestamp;pressure;altitude;pressure_sealevel;temperature;humidity
73267;BME280;61495;53.400;7.608;2023-03-31T00:00:45;100198.81;;;9.85;94.94
73267;BME280;61495;53.400;7.608;2023-03-31T00:03:14;100191.44;;;9.80;94.80
73267;BME280;61495;53.400;7.608;2023-03-31T00:05:46;100171.63;;;9.63;95.31
73267;BME280;61495;53.400;7.608;2023-03-31T00:08:12;100174.84;;;9.72;95.28
73267;BME280;61495;53.400;7.608;2023-03-31T00:10:44;100184.50;;;9.73;95.83
73267;BME280;61495;53.400;7.608;2023-03-31T00:13:10;100164.63;;;9.62;95.42
73267;BME280;61495;53.400;7.608;2023-03-31T00:15:36;100167.91;;;9.64;95.51
73267;BME280;61495;53.400;7.608;2023-03-31T00:18:02;100169.19;;;9.62;96.00
73267;BME280;61495;53.400;7.608;2023-03-31T00:20:28;100174.53;;;9.62;95.92
73267;BME280;61495;53.400;7.608;2023-03-31T00:22:53;100164.25;;;9.59;96.05
73267;BME280;61495;53.400;7.608;2023-03-31T00:25:21;100163.72;;;9.50;96.40
73267;BME280;61495;53.400;7.608;2023-03-31T00:27:47;100167.13;;;9.57;96.00
73267;BME280;61495;53.400;7.608;2023-03-31T00:30:15;100166.56;;;9.48;96.05
73267;BME280;61495;53.400;7.608;2023-03-31T00:32:40;100170.47;;;9.53;96.16
73267;BME280;61495;53.400;7.608;2023-03-31T00:35:06;100174.41;;;9.50;96.25
73267;BME280;61495;53.400;7.608;2023-03-31T00:37:33;100171.34;;;9.46;96.63
73267;BME280;61495;53.400;7.608;2023-03-31T00:39:59;100162.25;;;9.47;96.58
73267;BME280;61495;53.400;7.608;2023-03-31T00:42:25;100150.56;;;9.42;96.81
73267;BME280;61495;53.400;7.608;2023-03-31T00:47:39;100148.69;;;9.49;96.28
73267;BME280;61495;53.400;7.608;2023-03-31T00:50:14;100146.22;;;9.47;96.34
73267;BME280;61495;53.400;7.608;2023-03-31T00:52:43;100146.44;;;9.46;97.00
73267;BME280;61495;53.400;7.608;2023-03-31T00:55:13;100152.19;;;9.49;97.17
73267;BME280;61495;53.400;7.608;2023-03-31T00:57:42;100136.75;;;9.52;95.94
73267;BME280;61495;53.400;7.608;2023-03-31T01:00:12;100132.06;;;9.47;97.28
73267;BME280;61495;53.400;7.608;2023-03-31T01:02:44;100127.06;;;9.50;96.14
73267;BME280;61495;53.400;7.608;2023-03-31T01:05:25;100129.31;;;9.54;96.38
73267;BME280;61495;53.400;7.608;2023-03-31T01:07:53;100117.00;;;9.53;96.67
73267;BME280;61495;53.400;7.608;2023-03-31T01:10:24;100114.75;;;9.49;96.31
73267;BME280;61495;53.400;7.608;2023-03-31T01:12:53;100103.44;;;9.47;96.60
73267;BME280;61495;53.400;7.608;2023-03-31T01:15:20;100106.72;;;9.49;96.39
73267;BME280;61495;53.400;7.608;2023-03-31T01:17:46;100106.50;;;9.51;96.14
73267;BME280;61495;53.400;7.608;2023-03-31T01:20:35;100098.91;;;9.48;96.63
73267;BME280;61495;53.400;7.608;2023-03-31T01:28:49;100079.44;;;9.41;96.28
73267;BME280;61495;53.400;7.608;2023-03-31T01:34:11;100080.47;;;9.40;96.56
73267;BME280;61495;53.400;7.608;2023-03-31T01:40:05;100071.63;;;9.39;96.11
73267;BME280;61495;53.400;7.608;2023-03-31T01:46:09;100047.41;;;9.34;95.32
73267;BME280;61495;53.400;7.608;2023-03-31T01:48:57;100055.00;;;9.37;95.76
73267;BME280;61495;53.400;7.608;2023-03-31T01:51:49;100057.50;;;9.32;96.17
73267;BME280;61495;53.400;7.608;2023-03-31T01:54:29;100049.75;;;9.24;96.29
73267;BME280;61495;53.400;7.608;2023-03-31T01:57:00;100043.97;;;9.27;96.56
73267;BME280;61495;53.400;7.608;2023-03-31T01:59:39;100032.84;;;9.30;96.00
73267;BME280;61495;53.400;7.608;2023-03-31T02:02:09;100024.66;;;9.25;96.21
73267;BME280;61495;53.400;7.608;2023-03-31T02:04:54;100030.56;;;9.34;95.10
73267;BME280;61495;53.400;7.608;2023-03-31T02:07:27;100028.38;;;9.24;96.46
73267;BME280;61495;53.400;7.608;2023-03-31T02:09:59;100021.84;;;9.20;96.70
73267;BME280;61495;53.400;7.608;2023-03-31T02:12:27;100019.59;;;9.17;96.43
73267;BME280;61495;53.400;7.608;2023-03-31T02:14:55;100027.19;;;9.20;96.33
73267;BME280;61495;53.400;7.608;2023-03-31T02:17:24;100019.59;;;9.17;96.74
73267;BME280;61495;53.400;7.608;2023-03-31T02:19:54;100023.47;;;9.21;96.37
73267;BME280;61495;53.400;7.608;2023-03-31T02:22:22;100015.50;;;9.15;96.63
73267;BME280;61495;53.400;7.608;2023-03-31T02:24:50;100006.28;;;9.11;96.87
73267;BME280;61495;53.400;7.608;2023-03-31T02:27:37;100008.72;;;9.12;97.11
73267;BME280;61495;53.400;7.608;2023-03-31T02:30:04;99999.09;;;9.11;96.50
73267;BME280;61495;53.400;7.608;2023-03-31T02:32:36;100009.16;;;9.09;97.80
73267;BME280;61495;53.400;7.608;2023-03-31T02:35:02;99992.38;;;9.02;97.31
73267;BME280;61495;53.400;7.608;2023-03-31T02:37:28;99987.63;;;9.04;97.53
73267;BME280;61495;53.400;7.608;2023-03-31T02:39:56;100000.31;;;9.09;98.25
73267;BME280;61495;53.400;7.608;2023-03-31T02:42:23;99991.09;;;9.11;98.67
73267;BME280;61495;53.400;7.608;2023-03-31T02:44:49;99987.34;;;9.12;97.57
73267;BME280;61495;53.400;7.608;2023-03-31T02:47:17;99982.00;;;9.12;98.04
73267;BME280;61495;53.400;7.608;2023-03-31T02:49:55;99982.84;;;9.13;97.98
73267;BME280;61495;53.400;7.608;2023-03-31T02:52:35;99979.97;;;9.14;98.18
73267;BME280;61495;53.400;7.608;2023-03-31T03:00:36;99977.81;;;9.23;98.46
73267;BME280;61495;53.400;7.608;2023-03-31T03:06:10;99967.97;;;9.23;97.31
73267;BME280;61495;53.400;7.608;2023-03-31T03:09:25;99965.44;;;9.28;97.44
73267;BME280;61495;53.400;7.608;2023-03-31T03:14:31;99960.09;;;9.28;97.56
73267;BME280;61495;53.400;7.608;2023-03-31T03:17:27;99954.75;;;9.28;97.81
73267;BME280;61495;53.400;7.608;2023-03-31T03:19:59;99946.72;;;9.28;98.09
73267;BME280;61495;53.400;7.608;2023-03-31T03:22:25;99937.50;;;9.24;98.15
73267;BME280;61495;53.400;7.608;2023-03-31T03:24:51;99935.06;;;9.23;98.61
73267;BME280;61495;53.400;7.608;2023-03-31T03:27:18;99925.19;;;9.23;98.41
73267;BME280;61495;53.400;7.608;2023-03-31T03:29:43;99921.47;;;9.24;98.38
73267;BME280;61495;53.400;7.608;2023-03-31T03:32:09;99927.56;;;9.31;98.66
73267;BME280;61495;53.400;7.608;2023-03-31T03:34:35;99918.16;;;9.29;98.76
73267;BME280;61495;53.400;7.608;2023-03-31T03:37:01;99908.09;;;9.24;98.96
73267;BME280;61495;53.400;7.608;2023-03-31T03:39:26;99909.50;;;9.27;98.72
73267;BME280;61495;53.400;7.608;2023-03-31T03:41:57;99903.97;;;9.28;98.28
73267;BME280;61495;53.400;7.608;2023-03-31T03:44:22;99898.03;;;9.26;99.33
73267;BME280;61495;53.400;7.608;2023-03-31T03:46:47;99888.94;;;9.27;98.50
73267;BME280;61495;53.400;7.608;2023-03-31T03:49:13;99890.59;;;9.28;99.19
73267;BME280;61495;53.400;7.608;2023-03-31T03:51:38;99877.44;;;9.27;98.87
73267;BME280;61495;53.400;7.608;2023-03-31T03:54:04;99874.56;;;9.28;99.17
73267;BME280;61495;53.400;7.608;2023-03-31T03:56:29;99865.72;;;9.28;98.91
73267;BME280;61495;53.400;7.608;2023-03-31T03:58:55;99864.91;;;9.27;99.16
73267;BME280;61495;53.400;7.608;2023-03-31T04:01:21;99849.31;;;9.24;98.67
73267;BME280;61495;53.400;7.608;2023-03-31T04:03:47;99847.69;;;9.23;99.06
73267;BME280;61495;53.400;7.608;2023-03-31T04:06:12;99847.84;;;9.28;98.52
73267;BME280;61495;53.400;7.608;2023-03-31T04:08:37;99831.41;;;9.25;98.92
73267;BME280;61495;53.400;7.608;2023-03-31T04:11:11;99845.75;;;9.30;98.05
73267;BME280;61495;53.400;7.608;2023-03-31T04:13:37;99828.53;;;9.26;98.16
73267;BME280;61495;53.400;7.608;2023-03-31T04:16:03;99829.72;;;9.30;97.95
73267;BME280;61495;53.400;7.608;2023-03-31T04:18:28;99814.13;;;9.27;98.15
73267;BME280;61495;53.400;7.608;2023-03-31T04:20:53;99805.97;;;9.22;98.05
73267;BME280;61495;53.400;7.608;2023-03-31T04:23:28;99812.50;;;9.26;97.71
73267;BME280;61495;53.400;7.608;2023-03-31T04:25:54;99812.50;;;9.26;97.63
73267;BME280;61495;53.400;7.608;2023-03-31T04:28:19;99803.06;;;9.24;98.12
73267;BME280;61495;53.400;7.608;2023-03-31T04:30:44;99803.44;;;9.27;97.81
73267;BME280;61495;53.400;7.608;2023-03-31T04:33:10;99783.38;;;9.18;97.97
73267;BME280;61495;53.400;7.608;2023-03-31T04:35:39;99795.19;;;9.29;97.05
73267;BME280;61495;53.400;7.608;2023-03-31T04:38:23;99794.38;;;9.28;97.28
73267;BME280;61495;53.400;7.608;2023-03-31T04:40:51;99787.38;;;9.27;97.24
73267;BME280;61495;53.400;7.608;2023-03-31T04:43:18;99768.19;;;9.19;97.50
73267;BME280;61495;53.400;7.608;2023-03-31T04:45:44;99770.63;;;9.20;97.00
73267;BME280;61495;53.400;7.608;2023-03-31T04:48:10;99766.19;;;9.14;98.08
73267;BME280;61495;53.400;7.608;2023-03-31T04:50:36;99773.31;;;9.20;97.52
73267;BME280;61495;53.400;7.608;2023-03-31T04:53:02;99766.63;;;9.11;97.82
73267;BME280;61495;53.400;7.608;2023-03-31T04:55:27;99761.63;;;9.15;98.23
73267;BME280;61495;53.400;7.608;2023-03-31T04:57:53;99754.69;;;9.14;97.92
73267;BME280;61495;53.400;7.608;2023-03-31T05:00:19;99752.84;;;9.14;97.73
73267;BME280;61495;53.400;7.608;2023-03-31T05:02:45;99735.81;;;9.09;98.62
73267;BME280;61495;53.400;7.608;2023-03-31T05:05:10;99738.84;;;9.12;98.56
73267;BME280;61495;53.400;7.608;2023-03-31T05:07:37;99745.41;;;9.16;98.16
73267;BME280;61495;53.400;7.608;2023-03-31T05:10:03;99709.66;;;8.99;98.56
73267;BME280;61495;53.400;7.608;2023-03-31T05:12:32;99688.44;;;8.86;98.24
73267;BME280;61495;53.400;7.608;2023-03-31T05:14:58;99714.53;;;9.02;98.94
73267;BME280;61495;53.400;7.608;2023-03-31T05:17:23;99731.66;;;9.13;98.43
73267;BME280;61495;53.400;7.608;2023-03-31T05:19:48;99729.22;;;9.11;98.47
73267;BME280;61495;53.400;7.608;2023-03-31T05:22:14;99694.34;;;8.88;98.15
73267;BME280;61495;53.400;7.608;2023-03-31T05:24:41;99725.06;;;9.15;99.25
73267;BME280;61495;53.400;7.608;2023-03-31T05:27:06;99690.72;;;9.01;99.12
73267;BME280;61495;53.400;7.608;2023-03-31T05:29:31;99693.50;;;9.06;98.43
73267;BME280;61495;53.400;7.608;2023-03-31T05:31:57;99705.78;;;9.13;98.92
73267;BME280;61495;53.400;7.608;2023-03-31T05:34:22;99700.41;;;9.13;98.87
73267;BME280;61495;53.400;7.608;2023-03-31T05:36:47;99688.09;;;9.12;99.67
73267;BME280;61495;53.400;7.608;2023-03-31T05:39:15;99705.44;;;9.21;99.28
73267;BME280;61495;53.400;7.608;2023-03-31T05:41:43;99688.09;;;9.12;100.00
73267;BME280;61495;53.400;7.608;2023-03-31T05:44:09;99679.94;;;9.07;99.85
73267;BME280;61495;53.400;7.608;2023-03-31T05:46:34;99674.03;;;9.05;98.83
73267;BME280;61495;53.400;7.608;2023-03-31T05:48:59;99693.72;;;9.22;99.90
73267;BME280;61495;53.400;7.608;2023-03-31T05:51:25;99689.28;;;9.16;100.00
73267;BME280;61495;53.400;7.608;2023-03-31T05:53:50;99674.22;;;9.04;100.00
73267;BME280;61495;53.400;7.608;2023-03-31T05:56:16;99677.56;;;9.17;100.00
73267;BME280;61495;53.400;7.608;2023-03-31T05:58:41;99672.06;;;9.12;100.00
73267;BME280;61495;53.400;7.608;2023-03-31T06:01:09;99656.59;;;9.03;100.00
73267;BME280;61495;53.400;7.608;2023-03-31T06:03:36;99681.84;;;9.18;100.00
73267;BME280;61495;53.400;7.608;2023-03-31T06:06:03;99655.41;;;8.99;100.00
73267;BME280;61495;53.400;7.608;2023-03-31T06:08:33;99641.09;;;8.93;100.00
73267;BME280;61495;53.400;7.608;2023-03-31T06:10:59;99649.38;;;9.03;100.00
73267;BME280;61495;53.400;7.608;2023-03-31T06:13:27;99660.56;;;9.12;100.00
73267;BME280;61495;53.400;7.608;2023-03-31T06:15:55;99662.56;;;9.16;100.00
73267;BME280;61495;53.400;7.608;2023-03-31T06:18:20;99661.75;;;9.16;100.00
73267;BME280;61495;53.400;7.608;2023-03-31T06:20:46;99643.94;;;9.10;100.00
73267;BME280;61495;53.400;7.608;2023-03-31T06:23:11;99660.63;;;9.23;100.00
73267;BME280;61495;53.400;7.608;2023-03-31T06:25:37;99653.84;;;9.21;100.00
73267;BME280;61495;53.400;7.608;2023-03-31T06:28:02;99635.84;;;9.16;100.00
73267;BME280;61495;53.400;7.608;2023-03-31T06:30:29;99624.13;;;9.17;100.00
73267;BME280;61495;53.400;7.608;2023-03-31T06:32:55;99636.22;;;9.20;100.00
73267;BME280;61495;53.400;7.608;2023-03-31T06:35:20;99608.72;;;9.01;100.00
73267;BME280;61495;53.400;7.608;2023-03-31T06:37:45;99643.06;;;9.27;100.00
73267;BME280;61495;53.400;7.608;2023-03-31T06:40:11;99633.22;;;9.28;100.00
73267;BME280;61495;53.400;7.608;2023-03-31T06:42:36;99633.44;;;9.26;100.00
73267;BME280;61495;53.400;7.608;2023-03-31T06:45:02;99645.09;;;9.32;100.00
73267;BME280;61495;53.400;7.608;2023-03-31T06:47:28;99628.69;;;9.28;100.00
73267;BME280;61495;53.400;7.608;2023-03-31T06:49:53;99619.72;;;9.23;100.00
73267;BME280;61495;53.400;7.608;2023-03-31T06:52:18;99624.50;;;9.32;100.00
73267;BME280;61495;53.400;7.608;2023-03-31T06:54:44;99626.03;;;9.40;100.00
73267;BME280;61495;53.400;7.608;2023-03-31T06:57:10;99615.44;;;9.33;100.00
73267;BME280;61495;53.400;7.608;2023-03-31T06:59:35;99616.63;;;9.37;100.00
73267;BME280;61495;53.400;7.608;2023-03-31T07:02:00;99608.81;;;9.36;100.00
73267;BME280;61495;53.400;7.608;2023-03-31T07:04:26;99616.16;;;9.40;100.00
73267;BME280;61495;53.400;7.608;2023-03-31T07:06:51;99602.78;;;9.40;100.00
73267;BME280;61495;53.400;7.608;2023-03-31T07:09:17;99548.69;;;9.15;100.00
73267;BME280;61495;53.400;7.608;2023-03-31T07:11:45;99577.81;;;9.35;100.00
73267;BME280;61495;53.400;7.608;2023-03-31T07:14:11;99581.06;;;9.48;100.00
73267;BME280;61495;53.400;7.608;2023-03-31T07:16:36;99593.75;;;9.53;100.00
73267;BME280;61495;53.400;7.608;2023-03-31T07:19:02;99567.59;;;9.43;100.00
73267;BME280;61495;53.400;7.608;2023-03-31T07:21:27;99592.03;;;9.59;100.00
73267;BME280;61495;53.400;7.608;2023-03-31T07:23:53;99580.25;;;9.60;100.00
73267;BME280;61495;53.400;7.608;2023-03-31T07:26:18;99581.66;;;9.62;100.00
73267;BME280;61495;53.400;7.608;2023-03-31T07:28:43;99562.81;;;9.57;100.00
73267;BME280;61495;53.400;7.608;2023-03-31T07:31:10;99584.56;;;9.72;100.00
73267;BME280;61495;53.400;7.608;2023-03-31T07:33:35;99569.91;;;9.75;100.00
73267;BME280;61495;53.400;7.608;2023-03-31T07:36:04;99573.78;;;9.79;100.00
73267;BME280;61495;53.400;7.608;2023-03-31T07:38:29;99558.75;;;9.78;100.00
73267;BME280;61495;53.400;7.608;2023-03-31T07:40:55;99569.44;;;9.89;100.00
73267;BME280;61495;53.400;7.608;2023-03-31T07:43:20;99555.72;;;9.86;100.00
73267;BME280;61495;53.400;7.608;2023-03-31T07:45:46;99545.50;;;9.83;100.00
73267;BME280;61495;53.400;7.608;2023-03-31T07:48:11;99552.72;;;9.94;100.00
73267;BME280;61495;53.400;7.608;2023-03-31T07:50:36;99557.13;;;10.00;100.00
73267;BME280;61495;53.400;7.608;2023-03-31T07:53:02;99548.50;;;9.98;100.00
73267;BME280;61495;53.400;7.608;2023-03-31T07:55:27;99541.53;;;9.97;100.00
73267;BME280;61495;53.400;7.608;2023-03-31T07:57:53;99516.19;;;9.88;100.00
73267;BME280;61495;53.400;7.608;2023-03-31T08:00:19;99542.22;;;10.04;100.00
73267;BME280;61495;53.400;7.608;2023-03-31T08:02:45;99524.19;;;9.99;100.00
73267;BME280;61495;53.400;7.608;2023-03-31T08:05:12;99529.44;;;10.06;100.00
73267;BME280;61495;53.400;7.608;2023-03-31T08:07:39;99530.25;;;10.07;100.00
73267;BME280;61495;53.400;7.608;2023-03-31T08:10:08;99525.22;;;10.10;100.00
73267;BME280;61495;53.400;7.608;2023-03-31T08:12:34;99524.56;;;10.15;100.00
73267;BME280;61495;53.400;7.608;2023-03-31T08:15:00;99501.03;;;10.05;100.00
73267;BME280;61495;53.400;7.608;2023-03-31T08:17:25;99507.09;;;10.12;100.00
73267;BME280;61495;53.400;7.608;2023-03-31T08:19:50;99502.78;;;10.11;100.00
73267;BME280;61495;53.400;7.608;2023-03-31T08:22:16;99498.63;;;10.15;100.00
73267;BME280;61495;53.400;7.608;2023-03-31T08:24:42;99495.94;;;10.15;100.00
73267;BME280;61495;53.400;7.608;2023-03-31T08:27:07;99500.81;;;10.18;100.00
73267;BME280;61495;53.400;7.608;2023-03-31T08:29:32;99487.09;;;10.15;100.00
73267;BME280;61495;53.400;7.608;2023-03-31T08:31:58;99475.44;;;10.09;100.00
73267;BME280;61495;53.400;7.608;2023-03-31T08:34:23;99460.34;;;10.03;100.00
73267;BME280;61495;53.400;7.608;2023-03-31T08:36:49;99476.94;;;10.17;100.00
73267;BME280;61495;53.400;7.608;2023-03-31T08:39:14;99477.78;;;10.17;100.00
73267;BME280;61495;53.400;7.608;2023-03-31T08:41:48;99487.75;;;10.22;100.00
73267;BME280;61495;53.400;7.608;2023-03-31T08:44:22;99463.00;;;10.15;100.00
73267;BME280;61495;53.400;7.608;2023-03-31T08:46:51;99466.03;;;10.18;100.00
73267;BME280;61495;53.400;7.608;2023-03-31T08:49:20;99463.81;;;10.15;100.00
73267;BME280;61495;53.400;7.608;2023-03-31T08:51:51;99451.66;;;10.13;100.00
73267;BME280;61495;53.400;7.608;2023-03-31T08:54:38;99461.72;;;10.17;100.00
73267;BME280;61495;53.400;7.608;2023-03-31T08:57:15;99455.63;;;10.22;100.00
73267;BME280;61495;53.400;7.608;2023-03-31T08:59:44;99447.16;;;10.13;100.00
73267;BME280;61495;53.400;7.608;2023-03-31T09:05:05;99453.78;;;10.22;100.00
73267;BME280;61495;53.400;7.608;2023-03-31T09:08:03;99449.16;;;10.18;100.00
73267;BME280;61495;53.400;7.608;2023-03-31T09:10:53;99427.59;;;10.13;100.00
73267;BME280;61495;53.400;7.608;2023-03-31T09:13:41;99426.34;;;10.15;100.00
73267;BME280;61495;53.400;7.608;2023-03-31T09:16:13;99434.00;;;10.23;100.00
73267;BME280;61495;53.400;7.608;2023-03-31T09:18:41;99420.41;;;10.13;100.00
73267;BME280;61495;53.400;7.608;2023-03-31T09:21:32;99432.34;;;10.22;100.00
73267;BME280;61495;53.400;7.608;2023-03-31T09:24:30;99429.34;;;10.19;100.00
73267;BME280;61495;53.400;7.608;2023-03-31T09:27:01;99432.34;;;10.22;100.00
73267;BME280;61495;53.400;7.608;2023-03-31T09:29:58;99424.09;;;10.24;100.00
73267;BME280;61495;53.400;7.608;2023-03-31T09:32:31;99419.78;;;10.23;100.00
73267;BME280;61495;53.400;7.608;2023-03-31T09:35:00;99416.56;;;10.21;100.00
73267;BME280;61495;53.400;7.608;2023-03-31T09:37:29;99406.31;;;10.18;100.00
73267;BME280;61495;53.400;7.608;2023-03-31T09:39:58;99413.25;;;10.30;100.00
73267;BME280;61495;53.400;7.608;2023-03-31T09:42:24;99410.00;;;10.28;100.00
73267;BME280;61495;53.400;7.608;2023-03-31T09:44:50;99399.75;;;10.25;100.00
73267;BME280;61495;53.400;7.608;2023-03-31T09:47:41;99411.16;;;10.32;100.00
73267;BME280;61495;53.400;7.608;2023-03-31T09:50:07;99406.28;;;10.29;100.00
73267;BME280;61495;53.400;7.608;2023-03-31T09:52:43;99406.91;;;10.36;100.00
73267;BME280;61495;53.400;7.608;2023-03-31T09:55:31;99391.84;;;10.30;100.00
73267;BME280;61495;53.400;7.608;2023-03-31T09:57:59;99375.34;;;10.22;100.00
73267;BME280;61495;53.400;7.608;2023-03-31T10:00:26;99386.56;;;10.35;100.00
73267;BME280;61495;53.400;7.608;2023-03-31T10:02:56;99391.94;;;10.35;100.00
73267;BME280;61495;53.400;7.608;2023-03-31T10:05:32;99395.25;;;10.42;100.00
73267;BME280;61495;53.400;7.608;2023-03-31T10:10:34;99389.41;;;10.45;100.00
73267;BME280;61495;53.400;7.608;2023-03-31T10:13:07;99377.25;;;10.38;100.00
73267;BME280;61495;53.400;7.608;2023-03-31T10:15:36;99371.16;;;10.42;100.00
73267;BME280;61495;53.400;7.608;2023-03-31T10:18:02;99384.25;;;10.55;100.00
73267;BME280;61495;53.400;7.608;2023-03-31T10:20:37;99368.59;;;10.47;100.00
73267;BME280;61495;53.400;7.608;2023-03-31T10:23:13;99382.13;;;10.57;100.00
73267;BME280;61495;53.400;7.608;2023-03-31T10:25:40;99368.50;;;10.59;100.00
73267;BME280;61495;53.400;7.608;2023-03-31T10:28:11;99363.16;;;10.59;100.00
73267;BME280;61495;53.400;7.608;2023-03-31T10:30:39;99369.41;;;10.65;100.00
73267;BME280;61495;53.400;7.608;2023-03-31T10:33:11;99354.84;;;10.60;100.00
73267;BME280;61495;53.400;7.608;2023-03-31T10:35:38;99368.16;;;10.72;100.00
73267;BME280;61495;53.400;7.608;2023-03-31T10:38:09;99333.28;;;10.50;100.00
73267;BME280;61495;53.400;7.608;2023-03-31T10:40:36;99350.97;;;10.68;100.00
73267;BME280;61495;53.400;7.608;2023-03-31T10:43:16;99356.72;;;10.77;100.00
73267;BME280;61495;53.400;7.608;2023-03-31T10:45:50;99354.38;;;10.80;100.00
73267;BME280;61495;53.400;7.608;2023-03-31T10:50:43;99350.56;;;10.76;100.00
73267;BME280;61495;53.400;7.608;2023-03-31T10:53:12;99358.56;;;10.93;100.00
73267;BME280;61495;53.400;7.608;2023-03-31T11:09:32;99351.19;;;11.00;100.00
73267;BME280;61495;53.400;7.608;2023-03-31T11:12:21;99334.94;;;10.90;100.00
73267;BME280;61495;53.400;7.608;2023-03-31T11:20:33;99330.66;;;10.89;100.00
73267;BME280;61495;53.400;7.608;2023-03-31T11:23:19;99338.28;;;10.97;100.00
73267;BME280;61495;53.400;7.608;2023-03-31T11:25:59;99343.13;;;11.00;100.00
73267;BME280;61495;53.400;7.608;2023-03-31T11:31:27;99352.06;;;11.05;100.00
73267;BME280;61495;53.400;7.608;2023-03-31T11:36:35;99339.91;;;10.98;100.00
73267;BME280;61495;53.400;7.608;2023-03-31T11:41:45;99344.78;;;11.01;100.00
73267;BME280;61495;53.400;7.608;2023-03-31T11:44:16;99344.28;;;11.04;100.00
73267;BME280;61495;53.400;7.608;2023-03-31T11:46:48;99327.56;;;10.97;100.00
73267;BME280;61495;53.400;7.608;2023-03-31T11:52:01;99339.25;;;11.07;100.00
73267;BME280;61495;53.400;7.608;2023-03-31T12:00:33;99322.69;;;10.94;100.00
73267;BME280;61495;53.400;7.608;2023-03-31T12:03:14;99336.84;;;11.11;100.00
73267;BME280;61495;53.400;7.608;2023-03-31T12:05:45;99309.28;;;10.94;100.00
73267;BME280;61495;53.400;7.608;2023-03-31T12:08:17;99310.09;;;10.94;100.00
73267;BME280;61495;53.400;7.608;2023-03-31T12:10:54;99309.28;;;10.94;100.00
73267;BME280;61495;53.400;7.608;2023-03-31T12:16:28;99337.94;;;11.10;100.00
73267;BME280;61495;53.400;7.608;2023-03-31T12:19:17;99333.88;;;11.07;100.00
73267;BME280;61495;53.400;7.608;2023-03-31T12:21:50;99334.13;;;11.06;100.00
73267;BME280;61495;53.400;7.608;2023-03-31T12:24:17;99321.75;;;11.05;100.00
73267;BME280;61495;53.400;7.608;2023-03-31T12:31:47;99310.50;;;11.03;100.00
73267;BME280;61495;53.400;7.608;2023-03-31T12:34:16;99300.69;;;10.92;100.00
73267;BME280;61495;53.400;7.608;2023-03-31T12:37:06;99319.22;;;11.15;100.00
73267;BME280;61495;53.400;7.608;2023-03-31T12:39:51;99310.31;;;11.09;100.00
73267;BME280;61495;53.400;7.608;2023-03-31T12:45:05;99301.84;;;11.18;100.00
73267;BME280;61495;53.400;7.608;2023-03-31T12:50:31;99296.94;;;11.31;100.00
73267;BME280;61495;53.400;7.608;2023-03-31T12:53:18;99304.47;;;11.34;100.00
73267;BME280;61495;53.400;7.608;2023-03-31T12:55:54;99292.44;;;11.37;100.00
73267;BME280;61495;53.400;7.608;2023-03-31T13:03:43;99292.88;;;11.50;100.00
73267;BME280;61495;53.400;7.608;2023-03-31T13:09:05;99275.81;;;11.61;100.00
73267;BME280;61495;53.400;7.608;2023-03-31T13:11:53;99254.25;;;11.51;100.00
73267;BME280;61495;53.400;7.608;2023-03-31T13:14:35;99284.06;;;11.77;100.00
73267;BME280;61495;53.400;7.608;2023-03-31T13:17:22;99281.44;;;11.82;100.00
73267;BME280;61495;53.400;7.608;2023-03-31T13:19:48;99276.06;;;11.82;100.00
73267;BME280;61495;53.400;7.608;2023-03-31T13:22:34;99279.03;;;11.85;100.00
73267;BME280;61495;53.400;7.608;2023-03-31T13:27:54;99257.09;;;11.66;100.00
73267;BME280;61495;53.400;7.608;2023-03-31T13:33:29;99213.38;;;11.39;99.12
73267;BME280;61495;53.400;7.608;2023-03-31T13:54:53;99261.97;;;12.23;100.00
73267;BME280;61495;53.400;7.608;2023-03-31T13:57:43;99238.81;;;12.17;100.00
73267;BME280;61495;53.400;7.608;2023-03-31T14:03:20;99247.59;;;12.44;100.00
73267;BME280;61495;53.400;7.608;2023-03-31T14:05:58;99234.13;;;12.39;99.53
73267;BME280;61495;53.400;7.608;2023-03-31T14:08:35;99226.88;;;12.35;97.97
73267;BME280;61495;53.400;7.608;2023-03-31T14:13:41;99195.09;;;12.26;97.93
73267;BME280;61495;53.400;7.608;2023-03-31T14:16:07;99195.19;;;12.37;98.44
73267;BME280;61495;53.400;7.608;2023-03-31T14:18:36;99204.34;;;12.41;96.43
73267;BME280;61495;53.400;7.608;2023-03-31T14:21:27;99253.41;;;12.68;94.99
73267;BME280;61495;53.400;7.608;2023-03-31T14:37:24;99219.47;;;12.57;95.15
73267;BME280;61495;53.400;7.608;2023-03-31T14:39:53;99201.19;;;12.54;95.22
73267;BME280;61495;53.400;7.608;2023-03-31T14:42:23;99186.94;;;12.48;94.94
73267;BME280;61495;53.400;7.608;2023-03-31T14:44:56;99220.38;;;12.67;94.87
73267;BME280;61495;53.400;7.608;2023-03-31T14:47:26;99209.84;;;12.61;94.49
73267;BME280;61495;53.400;7.608;2023-03-31T14:50:05;99177.81;;;12.49;94.55
73267;BME280;61495;53.400;7.608;2023-03-31T14:52:33;99197.47;;;12.60;93.51
73267;BME280;61495;53.400;7.608;2023-03-31T14:57:36;99175.69;;;12.56;94.62
73267;BME280;61495;53.400;7.608;2023-03-31T15:00:05;99192.38;;;12.63;93.95
73267;BME280;61495;53.400;7.608;2023-03-31T15:02:35;99235.25;;;12.90;93.47
73267;BME280;61495;53.400;7.608;2023-03-31T15:05:06;99189.16;;;12.61;94.05
73267;BME280;61495;53.400;7.608;2023-03-31T15:07:38;99184.88;;;12.65;94.14
73267;BME280;61495;53.400;7.608;2023-03-31T15:10:05;99195.88;;;12.64;93.46
73267;BME280;61495;53.400;7.608;2023-03-31T15:12:31;99191.03;;;12.61;92.53
73267;BME280;61495;53.400;7.608;2023-03-31T15:15:04;99160.59;;;12.50;93.53
73267;BME280;61495;53.400;7.608;2023-03-31T15:17:39;99200.47;;;12.68;93.09
73267;BME280;61495;53.400;7.608;2023-03-31T15:20:26;99162.75;;;12.48;93.89
73267;BME280;61495;53.400;7.608;2023-03-31T15:22:54;99196.44;;;12.66;93.36
73267;BME280;61495;53.400;7.608;2023-03-31T15:25:24;99187.56;;;12.65;93.67
73267;BME280;61495;53.400;7.608;2023-03-31T15:30:27;99178.09;;;12.53;92.64
73267;BME280;61495;53.400;7.608;2023-03-31T15:32:53;99211.50;;;12.72;93.31
73267;BME280;61495;53.400;7.608;2023-03-31T15:37:49;99163.78;;;12.37;91.93
73267;BME280;61495;53.400;7.608;2023-03-31T15:42:42;99188.06;;;12.57;93.06
73267;BME280;61495;53.400;7.608;2023-03-31T15:47:55;99184.25;;;12.53;93.51